Time;durP1;ratioP1;P1;durP2;ratioP2;P2;SDS_P1;SDS_P2;PMS_P1;PMS_P2;Temp;Humidity;BMP_temperature;BMP_pressure;BME280_temperature;BME280_humidity;BME280_pressure;Samples;Min_cycle;Max_cycle;Signal;HPM_P1;HPM_P2
2022/05/02 00:02:07;;;;;;;7.93;3.20;;;15.50;65.80;;;;;;4998052;28;20192;-78
2022/05/02 00:04:35;;;;;;;5.10;3.17;;;15.50;66.00;;;;;;4999082;28;20250;-78
2022/05/02 00:07:04;;;;;;;8.10;3.13;;;15.50;66.10;;;;;;5002942;28;20566;-79
2022/05/02 00:09:33;;;;;;;8.50;2.93;;;15.40;66.20;;;;;;5002584;28;20204;-79
2022/05/02 00:12:01;;;;;;;9.60;3.80;;;15.40;66.30;;;;;;5003267;28;20221;-79
2022/05/02 00:14:31;;;;;;;9.87;3.87;;;15.30;66.40;;;;;;5000139;28;20630;-79
2022/05/02 00:17:01;;;;;;;6.50;3.60;;;15.30;66.70;;;;;;4998063;28;20292;-79
2022/05/02 00:19:29;;;;;;;8.00;3.87;;;15.30;66.90;;;;;;5002774;28;20192;-79
2022/05/02 00:21:58;;;;;;;6.97;3.93;;;15.20;67.10;;;;;;4999714;28;20197;-78
2022/05/02 00:24:26;;;;;;;7.27;3.80;;;15.20;67.40;;;;;;5002248;28;20197;-78
2022/05/02 00:26:54;;;;;;;6.50;3.40;;;15.10;67.40;;;;;;4995552;28;20212;-78
2022/05/02 00:29:24;;;;;;;7.97;3.37;;;15.10;67.40;;;;;;4999688;28;20894;-78
2022/05/02 00:31:53;;;;;;;6.13;3.47;;;15.00;67.90;;;;;;5000847;28;20593;-78
2022/05/02 00:34:22;;;;;;;6.67;3.93;;;15.00;67.80;;;;;;5005439;28;20327;-78
2022/05/02 00:36:50;;;;;;;5.43;3.20;;;14.90;67.80;;;;;;5004625;28;20215;-78
2022/05/02 00:39:18;;;;;;;8.50;3.50;;;14.90;67.80;;;;;;5002996;28;20197;-78
2022/05/02 00:41:47;;;;;;;10.20;4.50;;;14.90;67.90;;;;;;5004476;28;20212;-79
2022/05/02 00:44:15;;;;;;;8.60;3.80;;;14.80;67.90;;;;;;5000723;28;20193;-78
2022/05/02 00:46:44;;;;;;;6.17;3.70;;;14.80;68.10;;;;;;4999030;28;20203;-76
2022/05/02 00:49:15;;;;;;;9.60;4.00;;;14.80;68.30;;;;;;4997772;28;20192;-79
2022/05/02 00:51:43;;;;;;;10.20;4.10;;;14.70;68.50;;;;;;4999918;28;20184;-77
2022/05/02 00:54:11;;;;;;;8.90;3.70;;;14.70;68.80;;;;;;5000640;28;20224;-77
2022/05/02 00:56:41;;;;;;;8.10;4.27;;;14.60;68.80;;;;;;5002080;28;20200;-80
2022/05/02 00:59:11;;;;;;;8.00;3.77;;;14.60;69.10;;;;;;4998149;28;20195;-77
2022/05/02 01:01:40;;;;;;;10.37;3.80;;;14.60;69.40;;;;;;5003112;28;20196;-79
2022/05/02 01:04:08;;;;;;;7.13;3.43;;;14.50;69.90;;;;;;5012097;28;20889;-78
2022/05/02 01:09:25;;;;;;;10.20;3.57;;;14.30;70.50;;;;;;4996707;28;20476;-79
2022/05/02 01:11:55;;;;;;;7.33;3.63;;;14.30;70.20;;;;;;5003548;28;20239;-78
2022/05/02 01:14:23;;;;;;;6.13;3.40;;;14.20;70.20;;;;;;4998312;28;20890;-79
2022/05/02 01:16:51;;;;;;;6.97;3.60;;;14.20;70.40;;;;;;5003776;28;20271;-78
2022/05/02 01:19:20;;;;;;;6.13;3.50;;;14.10;70.50;;;;;;5001275;28;20188;-78
2022/05/02 01:21:49;;;;;;;5.17;3.17;;;14.10;71.20;;;;;;4999439;28;20189;-78
2022/05/02 01:24:18;;;;;;;7.57;3.80;;;14.10;71.10;;;;;;4995780;28;21271;-77
2022/05/02 01:26:46;;;;;;;5.67;3.30;;;14.00;72.50;;;;;;4998343;28;20207;-76
2022/05/02 01:29:14;;;;;;;6.43;3.67;;;14.00;72.20;;;;;;5000761;28;20201;-78
2022/05/02 01:31:44;;;;;;;6.87;3.50;;;13.90;72.00;;;;;;5000385;28;20646;-79
2022/05/02 01:34:13;;;;;;;7.83;3.50;;;14.00;72.00;;;;;;5002418;28;20219;-79
2022/05/02 01:36:43;;;;;;;5.67;3.10;;;13.90;72.30;;;;;;5001721;28;20193;-78
2022/05/02 01:39:12;;;;;;;5.33;3.00;;;13.90;72.20;;;;;;5007395;28;20810;-78
2022/05/02 01:41:41;;;;;;;5.80;3.63;;;13.90;72.20;;;;;;5000458;28;20200;-79
2022/05/02 01:44:09;;;;;;;5.60;2.80;;;13.80;71.90;;;;;;5000613;28;20193;-78
2022/05/02 01:46:38;;;;;;;4.93;2.87;;;13.80;72.00;;;;;;5000164;28;20267;-78
2022/05/02 01:49:06;;;;;;;5.30;3.10;;;13.80;72.00;;;;;;5003034;28;20193;-78
2022/05/02 01:51:35;;;;;;;8.33;3.50;;;13.80;72.00;;;;;;5006012;28;20865;-79
2022/05/02 01:54:03;;;;;;;5.27;3.20;;;13.70;71.90;;;;;;5003243;28;20234;-79
2022/05/02 01:56:33;;;;;;;7.30;2.90;;;13.70;72.00;;;;;;4999300;28;20192;-78
2022/05/02 01:59:01;;;;;;;4.93;2.80;;;13.70;72.10;;;;;;4963560;28;20723;-78
2022/05/02 02:01:30;;;;;;;5.83;3.20;;;13.70;72.10;;;;;;4991232;28;20189;-78
2022/05/02 02:04:00;;;;;;;7.30;3.47;;;13.70;72.00;;;;;;5003481;28;20200;-79
2022/05/02 02:06:27;;;;;;;5.07;3.03;;;13.70;72.10;;;;;;5004358;28;20199;-78
2022/05/02 02:08:57;;;;;;;6.37;3.33;;;13.70;72.30;;;;;;5003511;28;20204;-79
2022/05/02 02:11:27;;;;;;;5.70;3.23;;;13.60;72.30;;;;;;5003671;28;20201;-78
2022/05/02 02:13:57;;;;;;;7.87;3.50;;;13.60;72.50;;;;;;5006498;28;20208;-78
2022/05/02 02:16:25;;;;;;;7.20;3.00;;;13.60;72.60;;;;;;5002209;28;20933;-78
2022/05/02 02:18:54;;;;;;;8.17;3.30;;;13.60;72.50;;;;;;5006794;28;20199;-78
2022/05/02 02:21:22;;;;;;;6.27;3.27;;;13.60;72.50;;;;;;5009750;28;20196;-78
2022/05/02 02:23:51;;;;;;;5.33;2.97;;;13.60;72.50;;;;;;5000809;28;20200;-77
2022/05/02 02:26:19;;;;;;;5.73;3.33;;;13.50;72.50;;;;;;5003656;28;20191;-78
2022/05/02 02:28:47;;;;;;;6.30;2.83;;;13.50;72.50;;;;;;5003115;28;20216;-78
2022/05/02 02:31:17;;;;;;;7.60;3.53;;;13.50;72.70;;;;;;5000447;28;20204;-78
2022/05/02 02:33:45;;;;;;;8.77;3.03;;;13.50;72.70;;;;;;5007117;28;20212;-78
2022/05/02 02:36:14;;;;;;;8.43;3.03;;;13.50;72.70;;;;;;5007565;28;20211;-79
2022/05/02 02:38:42;;;;;;;5.33;3.70;;;13.40;72.60;;;;;;5004808;28;20208;-79
2022/05/02 02:41:10;;;;;;;5.80;3.40;;;13.40;72.70;;;;;;5005952;28;20196;-79
2022/05/02 02:43:39;;;;;;;8.00;3.53;;;13.40;72.70;;;;;;5002942;28;20191;-79
2022/05/02 02:46:07;;;;;;;9.00;4.20;;;13.40;72.70;;;;;;5004346;28;20231;-78
2022/05/02 02:48:37;;;;;;;8.37;3.53;;;13.40;72.80;;;;;;5004671;28;20209;-79
2022/05/02 02:51:05;;;;;;;6.20;3.10;;;13.30;73.00;;;;;;5004817;28;20189;-79
2022/05/02 02:53:34;;;;;;;5.63;3.20;;;13.30;73.10;;;;;;5004078;28;20228;-79
2022/05/02 02:56:02;;;;;;;5.87;3.57;;;13.30;73.30;;;;;;5005911;28;20195;-79
2022/05/02 02:58:31;;;;;;;7.20;3.70;;;13.30;73.40;;;;;;5007371;28;20203;-78
2022/05/02 03:00:59;;;;;;;8.40;3.63;;;13.30;73.40;;;;;;4997335;28;20194;-79
2022/05/02 03:03:29;;;;;;;7.87;3.63;;;13.30;73.60;;;;;;5006295;28;20188;-79
2022/05/02 03:06:05;;;;;;;6.13;3.57;;;13.20;73.60;;;;;;4999272;28;20196;-77
2022/05/02 03:08:37;;;;;;;7.83;3.43;;;13.20;73.60;;;;;;5001744;28;20227;-78
2022/05/02 03:11:05;;;;;;;10.27;3.50;;;13.20;73.70;;;;;;5003348;28;20195;-79
2022/05/02 03:13:34;;;;;;;6.63;3.43;;;13.20;73.80;;;;;;5003217;28;20224;-78
2022/05/02 03:16:03;;;;;;;5.40;3.53;;;13.20;73.80;;;;;;5002319;28;20198;-79
2022/05/02 03:18:34;;;;;;;10.33;3.90;;;13.20;74.30;;;;;;5002654;28;20184;-79
2022/05/02 03:21:04;;;;;;;6.70;3.43;;;13.10;74.90;;;;;;5005210;28;20195;-78
2022/05/02 03:23:32;;;;;;;6.97;3.60;;;13.10;74.50;;;;;;5004577;28;20227;-78
2022/05/02 03:26:01;;;;;;;6.20;2.93;;;13.20;74.50;;;;;;5001962;28;20201;-79
2022/05/02 03:28:29;;;;;;;9.37;3.93;;;13.10;74.40;;;;;;5004420;28;20188;-78
2022/05/02 03:30:58;;;;;;;5.60;3.50;;;13.10;74.40;;;;;;5000494;28;20886;-79
2022/05/02 03:33:26;;;;;;;6.63;3.47;;;13.20;74.50;;;;;;5002691;28;20192;-79
2022/05/02 03:35:54;;;;;;;7.73;3.70;;;13.20;74.50;;;;;;5001033;28;20193;-78
2022/05/02 03:38:24;;;;;;;7.50;3.90;;;13.20;74.70;;;;;;5004617;28;20192;-78
2022/05/02 03:40:52;;;;;;;7.77;3.93;;;13.20;75.00;;;;;;5006183;28;20208;-79
2022/05/02 03:43:21;;;;;;;8.77;3.90;;;13.20;75.20;;;;;;5006613;28;20204;-79
2022/05/02 03:45:49;;;;;;;9.33;3.80;;;13.20;75.20;;;;;;5003311;28;20218;-79
2022/05/02 03:48:17;;;;;;;9.03;3.90;;;13.20;75.10;;;;;;5003595;28;20193;-78
2022/05/02 03:50:46;;;;;;;5.33;3.63;;;13.20;75.00;;;;;;5003311;28;20200;-78
2022/05/02 03:53:15;;;;;;;9.00;4.20;;;13.20;75.20;;;;;;5003716;28;20204;-79
2022/05/02 03:55:45;;;;;;;6.43;3.83;;;13.20;75.50;;;;;;5002652;28;20224;-78
2022/05/02 03:58:14;;;;;;;8.20;4.00;;;13.20;75.60;;;;;;5001437;28;20192;-78
2022/05/02 04:00:43;;;;;;;10.20;4.40;;;13.30;75.60;;;;;;5001825;28;20584;-78
2022/05/02 04:03:11;;;;;;;10.63;4.13;;;13.30;75.60;;;;;;5001961;28;20196;-78
2022/05/02 04:05:40;;;;;;;11.77;4.10;;;13.30;75.50;;;;;;5011910;28;20199;-78
2022/05/02 04:08:08;;;;;;;7.03;3.40;;;13.30;75.30;;;;;;4999002;28;20189;-78
2022/05/02 04:10:37;;;;;;;7.60;3.97;;;13.30;75.20;;;;;;5000600;28;20207;-78
2022/05/02 04:13:07;;;;;;;9.97;3.57;;;13.40;75.10;;;;;;5007473;28;20224;-78
2022/05/02 04:15:35;;;;;;;6.20;3.37;;;13.40;74.90;;;;;;5003783;28;20225;-80
2022/05/02 04:18:04;;;;;;;7.90;3.40;;;13.40;74.90;;;;;;5004048;28;20201;-78
2022/05/02 04:20:33;;;;;;;6.60;3.57;;;13.50;74.80;;;;;;4998540;28;20205;-79
2022/05/02 04:23:01;;;;;;;10.90;4.00;;;13.50;74.70;;;;;;5002186;28;20203;-79
2022/05/02 04:25:30;;;;;;;9.17;3.30;;;13.50;74.60;;;;;;5003327;28;20196;-79
2022/05/02 04:28:01;;;;;;;5.50;3.30;;;13.60;74.50;;;;;;4950653;28;20204;-80
2022/05/02 04:30:30;;;;;;;6.50;3.70;;;13.60;74.40;;;;;;5000108;28;20851;-79
2022/05/02 04:33:01;;;;;;;7.57;4.03;;;13.60;74.30;;;;;;5001250;28;20308;-80
2022/05/02 04:35:32;;;;;;;5.50;3.10;;;13.70;74.30;;;;;;4999050;28;20220;-81
2022/05/02 04:38:01;;;;;;;6.20;3.50;;;13.70;74.20;;;;;;5001360;28;20288;-81
2022/05/02 04:40:29;;;;;;;6.13;3.30;;;13.80;74.10;;;;;;5001361;28;20192;-80
2022/05/02 04:42:58;;;;;;;6.80;2.77;;;13.80;73.80;;;;;;5001126;28;20212;-82
2022/05/02 04:45:27;;;;;;;6.70;3.23;;;13.90;73.20;;;;;;4998934;28;20801;-80
2022/05/02 04:47:57;;;;;;;6.43;3.27;;;14.00;73.00;;;;;;5004796;28;20202;-80
2022/05/02 04:50:25;;;;;;;5.97;2.83;;;14.00;72.70;;;;;;4998631;28;20197;-81
2022/05/02 04:52:54;;;;;;;5.90;2.63;;;14.10;72.60;;;;;;5000238;28;20204;-79
2022/05/02 04:55:22;;;;;;;6.30;2.53;;;14.20;72.00;;;;;;5008962;28;20231;-78
2022/05/02 04:57:50;;;;;;;5.73;3.10;;;14.30;72.10;;;;;;5002552;28;20193;-80
2022/05/02 05:00:19;;;;;;;7.37;3.30;;;14.30;72.70;;;;;;4997212;28;20200;-81
2022/05/02 05:02:47;;;;;;;7.07;3.00;;;14.40;71.80;;;;;;5002073;28;20204;-79
2022/05/02 05:05:18;;;;;;;5.87;2.83;;;14.50;71.50;;;;;;5003743;28;20207;-81
2022/05/02 05:07:46;;;;;;;6.50;3.10;;;14.60;71.10;;;;;;5003331;28;20213;-81
2022/05/02 05:10:14;;;;;;;9.87;3.27;;;14.60;70.80;;;;;;5003208;28;20222;-79
2022/05/02 05:12:58;;;;;;;9.40;3.00;;;14.70;70.50;;;;;;5003911;28;20228;-79
2022/05/02 05:18:37;;;;;;;5.53;2.60;;;14.90;70.20;;;;;;4996888;28;20188;-78
2022/05/02 05:21:13;;;;;;;6.77;2.90;;;15.00;69.30;;;;;;4998869;28;20215;-77
2022/05/02 05:24:16;;;;;;;7.30;2.67;;;15.00;68.60;;;;;;4998995;28;20192;-79
2022/05/02 05:26:57;;;;;;;5.67;2.67;;;15.10;68.10;;;;;;4998752;28;20205;-78
2022/05/02 05:29:36;;;;;;;5.97;2.90;;;15.20;66.90;;;;;;5002715;28;20192;-80
2022/05/02 05:32:19;;;;;;;8.43;3.17;;;15.30;66.80;;;;;;5004741;28;20203;-79
2022/05/02 05:34:55;;;;;;;4.60;3.07;;;15.50;66.40;;;;;;5006026;28;20222;-78
2022/05/02 05:37:56;;;;;;;6.93;3.17;;;15.50;65.50;;;;;;5003448;28;20202;-79
2022/05/02 05:40:29;;;;;;;5.73;2.90;;;15.60;65.50;;;;;;4999937;28;20196;-79
2022/05/02 05:43:10;;;;;;;6.70;3.27;;;15.80;65.30;;;;;;5011091;28;20199;-78
2022/05/02 05:45:47;;;;;;;6.67;2.40;;;15.80;65.30;;;;;;4997445;28;20199;-78
2022/05/02 05:48:28;;;;;;;4.43;2.73;;;15.90;64.70;;;;;;5000663;28;20199;-80
2022/05/02 05:51:07;;;;;;;9.20;3.33;;;16.00;64.00;;;;;;4997974;28;20199;-78
2022/05/02 05:53:48;;;;;;;8.17;2.90;;;16.10;63.90;;;;;;4996306;28;20192;-79
2022/05/02 05:56:35;;;;;;;7.27;2.97;;;16.20;63.70;;;;;;5000830;28;20208;-81
2022/05/02 05:59:08;;;;;;;4.90;3.07;;;16.30;63.00;;;;;;5007543;28;20212;-81
2022/05/02 06:01:55;;;;;;;4.43;2.20;;;16.40;62.90;;;;;;4996829;28;20284;-80
2022/05/02 06:04:27;;;;;;;6.10;2.30;;;16.50;61.70;;;;;;4988188;28;20188;-82
2022/05/02 06:07:00;;;;;;;4.87;2.03;;;16.60;59.70;;;;;;4998729;28;20283;-81
2022/05/02 06:09:31;;;;;;;3.33;2.10;;;16.70;59.70;;;;;;5002601;28;20191;-81
2022/05/02 06:12:01;;;;;;;5.43;1.97;;;16.80;59.10;;;;;;5007350;28;20227;-80
2022/05/02 06:14:31;;;;;;;4.73;2.00;;;16.90;58.90;;;;;;4999593;28;20193;-80
2022/05/02 06:19:49;;;;;;;3.63;2.03;;;17.10;59.30;;;;;;5004089;28;20210;-81
2022/05/02 06:22:19;;;;;;;3.27;1.70;;;17.20;58.90;;;;;;5002641;28;20192;-79
2022/05/02 06:24:50;;;;;;;5.70;1.70;;;17.30;58.70;;;;;;5000186;28;20200;-78
2022/05/02 06:27:19;;;;;;;3.10;1.63;;;17.40;57.40;;;;;;5001489;28;20554;-81
2022/05/02 06:29:48;;;;;;;3.23;1.60;;;17.50;57.10;;;;;;5007636;28;20196;-80
2022/05/02 06:32:17;;;;;;;2.93;1.63;;;17.60;57.30;;;;;;5001977;28;20197;-81
2022/05/02 06:34:45;;;;;;;2.63;1.57;;;17.70;56.90;;;;;;5000601;28;20193;-79
2022/05/02 06:37:31;;;;;;;3.40;1.83;;;17.80;55.30;;;;;;5002687;28;20220;-79
2022/05/02 06:40:10;;;;;;;4.60;1.60;;;17.90;55.20;;;;;;5006221;28;20185;-81
2022/05/02 06:42:40;;;;;;;4.47;2.00;;;18.00;55.40;;;;;;4998413;28;20546;-81
2022/05/02 06:45:30;;;;;;;6.77;2.03;;;18.10;55.60;;;;;;5011256;28;20193;-80
2022/05/02 06:48:27;;;;;;;9.23;1.57;;;18.20;55.00;;;;;;5001570;28;20601;-80
2022/05/02 06:51:00;;;;;;;5.00;2.17;;;18.30;54.30;;;;;;5005831;28;20203;-81
2022/05/02 06:53:49;;;;;;;4.03;1.70;;;18.40;54.60;;;;;;5002754;28;20188;-80
2022/05/02 06:56:29;;;;;;;4.33;1.90;;;18.50;55.60;;;;;;4999027;28;20827;-82
2022/05/02 06:59:06;;;;;;;8.93;2.33;;;18.50;54.40;;;;;;5008033;28;20184;-81
2022/05/02 07:01:50;;;;;;;4.03;1.67;;;18.60;54.10;;;;;;5002107;28;20199;-80
2022/05/02 07:04:42;;;;;;;3.77;1.70;;;18.60;54.20;;;;;;5006170;28;20193;-81
2022/05/02 07:07:27;;;;;;;4.83;2.03;;;18.70;53.90;;;;;;5007016;28;20184;-81
2022/05/02 07:10:05;;;;;;;3.23;1.43;;;18.80;53.90;;;;;;5008990;28;20274;-77
2022/05/02 07:12:40;;;;;;;2.90;1.63;;;18.90;54.00;;;;;;5006978;28;20960;-79
2022/05/02 07:15:13;;;;;;;2.07;1.20;;;18.90;52.00;;;;;;5006734;28;20828;-80
2022/05/02 07:17:56;;;;;;;3.17;1.70;;;19.00;52.40;;;;;;5006121;28;20223;-81
2022/05/02 07:20:29;;;;;;;2.20;1.40;;;19.00;51.40;;;;;;5003381;28;20559;-78
2022/05/02 07:23:11;;;;;;;4.07;1.30;;;19.10;51.50;;;;;;5005079;28;20687;-80
2022/05/02 07:25:45;;;;;;;2.97;1.10;;;19.10;51.40;;;;;;5012682;28;20200;-81
2022/05/02 07:28:30;;;;;;;6.63;1.40;;;19.20;51.40;;;;;;5005990;28;20272;-81
2022/05/02 07:30:59;;;;;;;9.33;1.37;;;19.30;50.90;;;;;;5002289;28;20245;-80
2022/05/02 07:33:35;;;;;;;3.80;1.50;;;19.30;51.10;;;;;;5000907;28;20211;-81
2022/05/02 07:36:05;;;;;;;11.33;1.80;;;19.30;51.10;;;;;;5003121;28;20215;-81
2022/05/02 07:38:40;;;;;;;3.43;1.40;;;19.40;51.00;;;;;;5008086;28;20192;-79
2022/05/02 07:41:25;;;;;;;5.27;1.10;;;19.40;51.00;;;;;;5003557;28;20200;-78
2022/05/02 07:44:00;;;;;;;3.97;1.40;;;19.50;50.60;;;;;;5005227;28;20189;-82
2022/05/02 07:46:31;;;;;;;2.23;1.37;;;19.50;49.40;;;;;;5008300;28;20199;-80
2022/05/02 07:49:04;;;;;;;2.57;1.30;;;19.60;50.00;;;;;;4997197;28;20822;-78
2022/05/02 07:51:33;;;;;;;8.33;2.17;;;19.70;50.40;;;;;;5004309;28;20196;-79
2022/05/02 07:54:03;;;;;;;4.80;1.77;;;19.70;50.70;;;;;;5002731;28;20406;-79
2022/05/02 07:56:36;;;;;;;5.10;1.63;;;19.70;50.80;;;;;;5002184;28;20220;-80
2022/05/02 07:59:15;;;;;;;3.80;1.07;;;19.80;50.60;;;;;;5005533;28;20201;-79
2022/05/02 08:01:44;;;;;;;2.13;1.20;;;19.80;50.20;;;;;;5014088;28;20192;-77
2022/05/02 08:04:14;;;;;;;4.30;1.30;;;19.80;49.60;;;;;;5003001;28;20555;-78
2022/05/02 08:07:09;;;;;;;6.53;1.40;;;19.90;49.50;;;;;;4999744;28;20188;-78
2022/05/02 08:10:06;;;;;;;1.73;1.20;;;19.90;49.70;;;;;;5000485;28;20193;-79
2022/05/02 08:12:39;;;;;;;4.80;1.53;;;20.00;49.10;;;;;;4964223;28;20232;-79
2022/05/02 08:15:15;;;;;;;3.27;1.50;;;20.00;48.80;;;;;;5008577;28;20745;-78
2022/05/02 08:18:05;;;;;;;5.53;1.30;;;20.00;49.00;;;;;;5004594;28;20211;-76
2022/05/02 08:20:41;;;;;;;3.20;1.40;;;20.10;48.40;;;;;;5002374;28;20235;-79
2022/05/02 08:29:10;;;;;;;3.50;1.10;;;20.20;47.90;;;;;;4977125;28;20204;-80
2022/05/02 08:31:51;;;;;;;3.60;1.60;;;20.30;48.20;;;;;;5003883;28;20207;-79
2022/05/02 08:34:32;;;;;;;3.17;1.50;;;20.30;48.20;;;;;;5002794;28;20633;-77
2022/05/02 08:37:17;;;;;;;2.07;1.17;;;20.40;48.30;;;;;;5000881;28;20300;-79
2022/05/02 08:39:57;;;;;;;2.23;1.40;;;20.50;48.60;;;;;;4999676;28;20196;-78
2022/05/02 08:43:13;;;;;;;3.00;1.70;;;20.50;48.30;;;;;;5006660;28;20271;-80
2022/05/02 08:46:43;;;;;;;3.80;1.17;;;20.60;47.60;;;;;;5002724;28;20203;-78
2022/05/02 08:49:49;;;;;;;3.00;1.67;;;20.60;46.10;;;;;;4962802;28;20200;-80
2022/05/02 08:52:55;;;;;;;4.00;1.20;;;20.70;47.20;;;;;;5007965;28;20203;-79
2022/05/02 08:55:46;;;;;;;1.77;1.13;;;20.70;47.10;;;;;;5003318;28;20681;-77
2022/05/02 08:59:05;;;;;;;4.97;1.30;;;20.70;47.80;;;;;;4997560;28;20212;-79
2022/05/02 09:02:18;;;;;;;3.20;1.40;;;20.80;47.50;;;;;;4992516;28;20223;-81
2022/05/02 09:05:35;;;;;;;4.47;1.20;;;20.80;47.70;;;;;;4985255;28;20192;-76
2022/05/02 09:08:48;;;;;;;2.88;1.50;;;20.90;47.90;;;;;;5002266;28;20209;-78
2022/05/02 09:11:58;;;;;;;2.85;1.25;;;21.00;47.50;;;;;;5003072;28;20196;-78
2022/05/02 09:14:53;;;;;;;3.55;1.23;;;21.10;47.30;;;;;;4944167;28;20196;-80
2022/05/02 09:17:55;;;;;;;2.60;1.50;;;21.10;47.30;;;;;;4984117;28;20224;-78
2022/05/02 09:21:06;;;;;;;2.67;1.30;;;21.20;47.40;;;;;;5000956;28;20192;-80
2022/05/02 09:24:25;;;;;;;2.15;1.40;;;21.20;47.10;;;;;;4983764;28;20700;-80
2022/05/02 09:27:24;;;;;;;2.70;1.30;;;21.30;47.20;;;;;;5010321;28;20188;-80
2022/05/02 09:30:18;;;;;;;3.95;1.20;;;21.30;47.20;;;;;;4999540;28;20552;-79
2022/05/02 09:32:48;;;;;;;2.20;1.35;;;21.40;47.30;;;;;;5001476;28;20196;-78
2022/05/02 09:35:25;;;;;;;2.60;1.40;;;21.40;47.50;;;;;;5010316;28;20678;-80
2022/05/02 09:37:57;;;;;;;10.95;1.38;;;21.50;47.60;;;;;;5000520;28;20207;-78
2022/05/02 09:40:37;;;;;;;2.53;1.30;;;21.60;47.80;;;;;;4999986;28;20683;-80
2022/05/02 09:43:24;;;;;;;3.30;1.10;;;21.60;47.30;;;;;;4998611;28;20244;-78
2022/05/02 09:52:04;;;;;;;3.88;1.20;;;21.70;46.40;;;;;;5000916;28;20196;-77
2022/05/02 09:58:03;;;;;;;2.05;1.00;;;21.80;45.40;;;;;;5002702;28;20726;-82
2022/05/02 10:03:37;;;;;;;1.27;0.90;;;21.90;45.50;;;;;;4996926;28;20253;-80
2022/05/02 10:06:07;;;;;;;2.97;1.30;;;22.00;45.40;;;;;;4998359;28;20208;-84
2022/05/02 10:08:48;;;;;;;7.90;1.70;;;22.00;45.30;;;;;;4999096;28;20725;-83
2022/05/02 10:11:35;;;;;;;5.40;1.30;;;22.00;45.20;;;;;;5000071;28;20197;-82
2022/05/02 10:14:25;;;;;;;4.65;1.40;;;22.10;45.40;;;;;;4955912;28;20834;-84
2022/05/02 10:16:58;;;;;;;2.60;1.40;;;22.10;44.90;;;;;;5000873;28;20391;-81
2022/05/02 10:19:45;;;;;;;3.08;1.48;;;22.20;44.90;;;;;;5002757;28;20189;-80
2022/05/02 10:22:30;;;;;;;3.40;1.15;;;22.30;45.00;;;;;;5006555;28;20196;-82
2022/05/02 10:25:03;;;;;;;2.30;1.17;;;22.30;44.00;;;;;;4997918;28;20769;-82
2022/05/02 10:27:40;;;;;;;10.18;1.42;;;22.40;44.50;;;;;;5012887;28;20183;-81
2022/05/02 10:30:12;;;;;;;2.45;1.20;;;22.40;45.20;;;;;;4993026;28;20254;-82
2022/05/02 10:32:53;;;;;;;4.15;1.15;;;22.50;45.20;;;;;;5006139;28;20192;-80
2022/05/02 10:35:24;;;;;;;2.85;1.67;;;22.60;44.80;;;;;;5006057;28;20199;-78
2022/05/02 10:37:58;;;;;;;4.03;1.25;;;22.60;43.50;;;;;;5004421;28;20227;-80
2022/05/02 10:40:34;;;;;;;4.22;1.38;;;22.70;44.40;;;;;;5007463;28;20196;-81
2022/05/02 10:43:07;;;;;;;2.58;1.42;;;22.70;43.90;;;;;;5014516;28;20189;-79
2022/05/02 10:45:38;;;;;;;5.43;1.23;;;22.80;44.10;;;;;;5006783;28;20254;-80
2022/05/02 10:48:15;;;;;;;1.85;1.00;;;22.70;43.50;;;;;;5006242;28;20192;-77
2022/05/02 10:50:53;;;;;;;2.40;1.50;;;22.70;43.30;;;;;;5004310;28;20231;-78
2022/05/02 10:53:55;;;;;;;3.97;1.40;;;22.70;43.60;;;;;;5003482;28;20188;-81
2022/05/02 10:56:29;;;;;;;2.03;1.08;;;22.70;43.30;;;;;;5006729;28;20190;-79
2022/05/02 10:59:04;;;;;;;3.60;1.40;;;22.70;43.60;;;;;;5010904;28;20293;-81
2022/05/02 11:02:23;;;;;;;2.85;0.98;;;22.60;43.10;;;;;;5008083;28;20658;-81
2022/05/02 11:05:05;;;;;;;2.72;1.27;;;22.60;43.40;;;;;;5005388;28;20643;-80
2022/05/02 11:07:49;;;;;;;3.33;1.25;;;22.70;43.80;;;;;;5003289;28;20575;-80
2022/05/02 11:10:20;;;;;;;2.55;1.08;;;22.70;42.60;;;;;;4998496;28;20184;-80
2022/05/02 11:12:57;;;;;;;3.30;1.00;;;22.70;42.80;;;;;;5000869;28;20307;-78
2022/05/02 11:15:26;;;;;;;3.17;1.25;;;22.70;42.30;;;;;;5002793;28;20193;-79
2022/05/02 11:18:08;;;;;;;2.20;1.40;;;22.70;42.50;;;;;;5014919;28;20223;-78
2022/05/02 11:20:48;;;;;;;2.40;1.20;;;22.60;42.70;;;;;;4998160;28;20188;-78
2022/05/02 11:23:34;;;;;;;1.58;1.20;;;22.60;43.10;;;;;;5003425;28;20200;-77
2022/05/02 11:26:14;;;;;;;1.27;1.00;;;22.50;43.50;;;;;;5001446;28;20201;-79
2022/05/02 11:28:59;;;;;;;4.15;1.33;;;22.60;43.70;;;;;;5005164;28;20181;-79
2022/05/02 11:31:36;;;;;;;3.92;1.08;;;22.70;43.40;;;;;;5012693;28;20191;-77
2022/05/02 11:34:21;;;;;;;2.72;1.33;;;22.70;43.60;;;;;;5001896;28;20230;-85
2022/05/02 11:36:55;;;;;;;2.88;1.10;;;22.70;43.30;;;;;;5006331;28;20228;-80
2022/05/02 11:39:34;;;;;;;3.22;1.10;;;22.60;43.00;;;;;;5004439;28;20806;-81
2022/05/02 11:42:10;;;;;;;2.28;1.20;;;22.70;42.70;;;;;;5004452;28;20196;-78
2022/05/02 11:44:49;;;;;;;3.10;1.27;;;22.70;43.30;;;;;;5004161;28;20199;-82
2022/05/02 11:47:23;;;;;;;2.08;1.33;;;22.70;43.40;;;;;;5004400;28;20184;-82
2022/05/02 11:50:03;;;;;;;2.92;1.60;;;22.80;43.10;;;;;;5005235;28;21740;-79
2022/05/02 11:52:33;;;;;;;2.33;1.30;;;22.90;43.20;;;;;;5005175;28;20654;-79
2022/05/02 11:55:02;;;;;;;4.43;1.60;;;22.90;43.90;;;;;;5005793;28;20184;-80
2022/05/02 11:57:37;;;;;;;2.67;1.17;;;23.00;44.00;;;;;;5005431;28;20215;-79
2022/05/02 12:00:12;;;;;;;1.63;1.02;;;23.10;43.60;;;;;;5006901;28;20211;-81
2022/05/02 12:02:48;;;;;;;2.40;1.20;;;23.20;43.40;;;;;;5005604;28;20250;-82
2022/05/02 12:05:28;;;;;;;2.70;1.48;;;23.30;43.20;;;;;;5008596;28;20637;-80
2022/05/02 12:07:57;;;;;;;3.20;1.50;;;23.40;43.70;;;;;;5007246;28;20452;-82
2022/05/02 12:10:40;;;;;;;4.55;1.30;;;23.50;42.80;;;;;;5005938;28;20197;-82
2022/05/02 12:13:10;;;;;;;4.82;1.70;;;23.50;42.50;;;;;;5006711;28;20270;-80
2022/05/02 12:15:58;;;;;;;5.47;1.95;;;23.50;42.60;;;;;;5008377;28;20188;-81
2022/05/02 12:18:40;;;;;;;4.68;1.30;;;23.40;43.00;;;;;;5009464;28;20244;-81
2022/05/02 12:21:15;;;;;;;3.10;1.33;;;23.40;43.40;;;;;;5005816;28;20227;-81
2022/05/02 12:23:45;;;;;;;2.40;0.90;;;23.40;42.80;;;;;;5000155;28;20596;-80
2022/05/02 12:26:19;;;;;;;4.10;1.42;;;23.30;41.30;;;;;;5002690;28;20196;-81
2022/05/02 12:28:55;;;;;;;3.08;1.50;;;23.30;41.60;;;;;;5001111;28;20196;-80
2022/05/02 12:31:27;;;;;;;2.58;1.30;;;23.20;42.10;;;;;;5000804;28;20973;-79
2022/05/02 12:33:57;;;;;;;2.28;1.10;;;23.20;42.30;;;;;;5004164;28;20280;-82
2022/05/02 12:36:38;;;;;;;3.78;1.00;;;23.20;42.40;;;;;;5002874;28;20193;-82
2022/05/02 12:39:10;;;;;;;6.70;1.10;;;23.10;42.30;;;;;;5001469;28;20212;-81
2022/05/02 12:41:47;;;;;;;2.50;1.20;;;23.20;42.60;;;;;;5000937;28;20765;-80
2022/05/02 12:44:16;;;;;;;2.80;1.40;;;23.30;42.80;;;;;;5005884;28;20284;-79
2022/05/02 12:46:48;;;;;;;3.50;1.30;;;23.30;43.00;;;;;;5004214;28;20204;-80
2022/05/02 12:49:26;;;;;;;6.00;1.25;;;23.40;43.30;;;;;;5005160;28;20200;-81
2022/05/02 12:51:57;;;;;;;3.10;0.93;;;23.60;43.50;;;;;;5001983;28;20694;-80
2022/05/02 12:54:27;;;;;;;3.75;1.10;;;23.70;43.40;;;;;;5004681;28;20176;-80
2022/05/02 13:02:40;;;;;;;5.55;1.27;;;23.90;43.50;;;;;;5001139;28;20193;-82
2022/05/02 13:05:11;;;;;;;4.57;1.27;;;23.80;42.90;;;;;;5002704;28;20669;-79
2022/05/02 13:07:47;;;;;;;5.78;1.23;;;23.70;42.30;;;;;;4998751;28;20196;-80
2022/05/02 13:10:25;;;;;;;3.58;1.45;;;23.60;42.50;;;;;;4969713;28;20199;-80
2022/05/02 13:12:58;;;;;;;2.25;1.08;;;23.50;42.60;;;;;;4997207;28;20226;-81
2022/05/02 13:15:28;;;;;;;3.30;1.10;;;23.40;41.90;;;;;;5002241;28;20885;-85
2022/05/02 13:18:01;;;;;;;4.82;1.20;;;23.30;42.10;;;;;;5003467;28;20196;-83
2022/05/02 13:20:59;;;;;;;5.18;1.38;;;23.30;41.40;;;;;;5001695;28;20560;-82
2022/05/02 13:23:39;;;;;;;2.55;1.05;;;23.40;41.60;;;;;;5003339;28;20188;-82
2022/05/02 13:26:26;;;;;;;2.95;1.27;;;23.50;41.50;;;;;;4998064;28;20195;-81
2022/05/02 13:29:03;;;;;;;2.75;1.42;;;23.50;41.90;;;;;;5002404;28;20218;-80
2022/05/02 13:31:42;;;;;;;1.73;0.90;;;23.40;42.00;;;;;;5000908;28;20200;-81
2022/05/02 13:34:27;;;;;;;3.22;0.85;;;23.30;40.50;;;;;;5002950;28;20199;-82
2022/05/02 13:37:04;;;;;;;3.10;0.90;;;23.20;40.40;;;;;;5005578;28;20181;-79
2022/05/02 13:39:47;;;;;;;2.25;1.17;;;23.20;40.90;;;;;;5006658;28;20211;-81
2022/05/02 13:42:40;;;;;;;6.07;1.20;;;23.30;41.30;;;;;;5005014;28;20191;-79
2022/05/02 13:45:17;;;;;;;5.38;1.50;;;23.30;41.80;;;;;;5000998;28;20199;-82
2022/05/02 13:47:51;;;;;;;3.70;1.20;;;23.40;41.30;;;;;;5003168;28;20441;-81
2022/05/02 13:50:21;;;;;;;4.05;1.05;;;23.50;41.70;;;;;;5004499;28;20192;-80
2022/05/02 13:52:52;;;;;;;2.05;1.10;;;23.50;41.50;;;;;;5004883;28;20226;-81
2022/05/02 13:55:54;;;;;;;2.95;1.10;;;23.70;41.30;;;;;;5000793;28;20242;-83
2022/05/02 13:58:32;;;;;;;2.88;1.05;;;23.70;41.40;;;;;;4989303;28;20188;-81
2022/05/02 14:01:32;;;;;;;5.97;1.08;;;23.80;41.50;;;;;;4999884;28;20204;-81
2022/05/02 14:04:14;;;;;;;3.58;1.10;;;23.80;40.80;;;;;;4996526;28;20200;-79